Time;durP1;ratioP1;P1;durP2;ratioP2;P2;SDS_P1;SDS_P2;PMS_P1;PMS_P2;Temp;Humidity;BMP_temperature;BMP_pressure;BME280_temperature;BME280_humidity;BME280_pressure;Samples;Min_cycle;Max_cycle;Signal;HPM_P1;HPM_P2
2022/03/04 00:02:20;;;;;;;26.45;12.95;;;1.50;99.90;;;;;;5014557;28;20120;-69
2022/03/04 00:04:46;;;;;;;26.80;13.35;;;2.10;99.90;;;;;;5014395;28;20049;-69
2022/03/04 00:07:12;;;;;;;25.77;12.57;;;;;;;;;;5014390;28;20041;-69
2022/03/04 00:09:38;;;;;;;24.42;13.02;;;;;;;;;;5032363;28;20048;-69
2022/03/04 00:12:07;;;;;;;23.20;13.55;;;;;;;;;;5032288;28;20442;-69
2022/03/04 00:14:34;;;;;;;26.73;13.73;;;0.50;99.90;;;;;;5014507;28;20041;-69
2022/03/04 00:17:00;;;;;;;24.27;13.80;;;;;;;;;;5014407;28;20382;-69
2022/03/04 00:19:26;;;;;;;23.08;12.98;;;;;;;;;;5013927;28;20049;-69
2022/03/04 00:21:52;;;;;;;23.98;13.57;;;1.40;99.90;;;;;;5014025;28;20090;-69
2022/03/04 00:24:20;;;;;;;27.80;14.05;;;1.00;99.90;;;;;;5031778;28;20033;-69
2022/03/04 00:26:46;;;;;;;25.55;13.52;;;1.10;99.90;;;;;;5014138;28;20041;-69
2022/03/04 00:29:12;;;;;;;24.83;13.15;;;1.20;99.90;;;;;;5013874;28;20556;-69
2022/03/04 00:31:39;;;;;;;26.15;14.05;;;0.80;99.90;;;;;;5014022;28;20164;-69
2022/03/04 00:34:09;;;;;;;28.90;13.77;;;1.10;99.90;;;;;;5014147;28;20481;-69
2022/03/04 00:36:36;;;;;;;29.65;14.25;;;1.00;99.90;;;;;;5013538;28;20513;-69
2022/03/04 00:39:05;;;;;;;26.65;14.23;;;1.00;99.90;;;;;;5031427;28;20128;-69
2022/03/04 00:41:31;;;;;;;28.45;14.25;;;;;;;;;;4997570;28;20072;-69
2022/03/04 00:43:57;;;;;;;25.60;13.77;;;;;;;;;;5013886;28;20042;-69
2022/03/04 00:46:23;;;;;;;32.75;15.18;;;;;;;;;;5013895;28;20072;-69
2022/03/04 00:48:49;;;;;;;26.35;14.35;;;;;;;;;;5014177;28;20361;-69
2022/03/04 00:51:16;;;;;;;30.35;14.05;;;0.70;99.90;;;;;;5013341;28;20045;-69
2022/03/04 00:53:42;;;;;;;28.55;14.85;;;;;;;;;;5014066;28;20103;-69
2022/03/04 00:56:09;;;;;;;30.75;15.15;;;0.80;99.90;;;;;;5031449;28;20129;-69
2022/03/04 00:58:35;;;;;;;28.20;13.85;;;;;;;;;;5013574;28;20532;-69
2022/03/04 01:01:02;;;;;;;30.30;15.27;;;0.80;99.90;;;;;;5013833;28;20439;-69
2022/03/04 01:03:28;;;;;;;33.60;15.55;;;0.90;99.90;;;;;;5031035;28;20048;-69
2022/03/04 01:05:54;;;;;;;29.65;15.00;;;0.70;99.90;;;;;;5031884;28;20128;-69
2022/03/04 01:08:20;;;;;;;33.20;15.40;;;1.40;99.90;;;;;;5031363;28;20496;-69
2022/03/04 01:10:46;;;;;;;32.33;14.80;;;0.60;99.90;;;;;;5031009;28;20064;-69
2022/03/04 01:13:15;;;;;;;30.90;14.63;;;0.50;99.90;;;;;;5031086;28;20538;-69
2022/03/04 01:15:44;;;;;;;32.35;15.68;;;0.30;99.90;;;;;;5031088;28;20060;-69
2022/03/04 01:18:10;;;;;;;29.25;15.20;;;0.40;99.90;;;;;;5013487;28;20053;-69
2022/03/04 01:20:35;;;;;;;31.40;15.13;;;0.70;99.90;;;;;;5030595;28;20049;-69
2022/03/04 01:23:02;;;;;;;32.38;15.90;;;-0.30;99.90;;;;;;5030852;28;20041;-69
2022/03/04 01:25:28;;;;;;;31.27;15.82;;;;;;;;;;5013725;28;20046;-69
2022/03/04 01:27:54;;;;;;;31.17;16.25;;;-0.40;99.90;;;;;;5031066;28;20397;-69
2022/03/04 01:30:20;;;;;;;33.72;16.38;;;0.50;99.90;;;;;;5013230;28;20044;-69
2022/03/04 01:32:47;;;;;;;35.63;16.60;;;;;;;;;;5030881;28;20496;-69
2022/03/04 01:35:13;;;;;;;34.08;16.23;;;0.20;99.90;;;;;;5013574;28;20408;-69
2022/03/04 01:37:40;;;;;;;34.08;17.23;;;0.40;99.90;;;;;;5013392;28;20389;-69
2022/03/04 01:40:08;;;;;;;35.67;16.73;;;0.60;99.90;;;;;;5013294;28;20037;-69
2022/03/04 01:42:38;;;;;;;36.45;17.77;;;0.20;99.90;;;;;;4997474;28;20477;-69
2022/03/04 01:45:07;;;;;;;35.42;16.45;;;0.30;99.90;;;;;;5029115;28;20127;-69
2022/03/04 01:47:36;;;;;;;32.15;16.10;;;0.10;99.90;;;;;;5013202;28;20049;-69
2022/03/04 01:50:08;;;;;;;36.47;17.75;;;;;;;;;;5034838;28;20050;-69
2022/03/04 01:52:34;;;;;;;35.00;17.23;;;0.50;99.90;;;;;;5034422;28;20500;-69
2022/03/04 01:54:59;;;;;;;35.63;16.95;;;0.40;99.90;;;;;;5016614;28;20045;-69
2022/03/04 01:57:29;;;;;;;35.67;16.98;;;;;;;;;;5034697;28;20116;-68
2022/03/04 01:59:56;;;;;;;39.35;17.95;;;;;;;;;;5035614;28;20033;-68
2022/03/04 02:02:22;;;;;;;37.47;17.55;;;;;;;;;;5046519;28;20075;-69
2022/03/04 02:04:53;;;;;;;37.75;17.23;;;0.10;99.90;;;;;;5034539;28;20049;-69
2022/03/04 02:07:19;;;;;;;38.67;18.65;;;0.00;99.90;;;;;;5016853;28;20045;-69
2022/03/04 02:09:46;;;;;;;38.50;18.35;;;;;;;;;;5034138;28;20370;-69
2022/03/04 02:12:12;;;;;;;42.35;18.85;;;;;;;;;;5034085;28;20497;-69
2022/03/04 02:14:38;;;;;;;40.90;18.00;;;;;;;;;;5033873;28;20481;-69
2022/03/04 02:17:04;;;;;;;41.53;19.20;;;;;;;;;;5034021;28;20037;-69
2022/03/04 02:19:31;;;;;;;44.15;19.98;;;0.00;99.90;;;;;;5008804;28;20061;-69
2022/03/04 02:22:00;;;;;;;39.80;18.90;;;-0.10;99.90;;;;;;4994749;28;20104;-69
2022/03/04 02:24:28;;;;;;;39.30;19.27;;;-0.10;99.90;;;;;;4994529;28;20042;-69
2022/03/04 02:27:01;;;;;;;42.00;20.13;;;-0.10;99.90;;;;;;4994445;28;20046;-68
2022/03/04 02:29:28;;;;;;;40.20;19.73;;;-0.10;99.90;;;;;;4993709;28;20399;-68
2022/03/04 02:31:54;;;;;;;40.53;19.40;;;;;;;;;;4994600;28;20045;-68
2022/03/04 02:34:21;;;;;;;39.72;18.75;;;-0.30;99.90;;;;;;4993162;28;20049;-68
2022/03/04 02:36:48;;;;;;;45.15;20.98;;;0.10;99.90;;;;;;4993401;28;20387;-69
2022/03/04 02:39:15;;;;;;;40.38;20.63;;;;;;;;;;4993565;28;20050;-69
2022/03/04 02:41:41;;;;;;;45.17;20.55;;;-1.00;99.90;;;;;;4976792;28;20125;-69
2022/03/04 02:44:10;;;;;;;42.95;21.05;;;-0.30;99.90;;;;;;5009385;28;20034;-69
2022/03/04 02:46:40;;;;;;;41.95;20.58;;;;;;;;;;4993235;28;20085;-69
2022/03/04 02:49:07;;;;;;;47.40;20.92;;;-0.30;99.90;;;;;;4994294;28;20185;-69
2022/03/04 02:51:33;;;;;;;46.15;22.17;;;-0.40;99.90;;;;;;4994261;28;20042;-68
2022/03/04 02:53:59;;;;;;;48.25;20.85;;;-0.40;99.90;;;;;;4994118;28;20077;-69
2022/03/04 02:56:25;;;;;;;44.80;21.23;;;;;;;;;;4992803;28;20490;-69
2022/03/04 02:58:51;;;;;;;45.20;21.98;;;;;;;;;;4993732;28;20177;-71
2022/03/04 03:01:18;;;;;;;45.33;20.65;;;-0.40;99.90;;;;;;4993283;28;20050;-68
2022/03/04 03:03:44;;;;;;;49.13;22.73;;;;;;;;;;4992815;28;20144;-68
2022/03/04 03:06:10;;;;;;;45.83;21.95;;;;;;;;;;4976508;28;20129;-68
2022/03/04 03:08:36;;;;;;;50.10;23.13;;;-0.50;99.90;;;;;;4976115;28;20047;-68
2022/03/04 03:11:02;;;;;;;48.92;21.90;;;-1.50;99.90;;;;;;4994435;28;20441;-68
2022/03/04 03:13:33;;;;;;;47.80;22.83;;;;;;;;;;4992800;28;20129;-68
2022/03/04 03:16:00;;;;;;;48.88;23.05;;;-0.80;99.90;;;;;;4993770;28;20038;-68
2022/03/04 03:18:26;;;;;;;47.22;23.17;;;;;;;;;;4993289;28;20030;-68
2022/03/04 03:20:52;;;;;;;51.05;24.20;;;-0.20;99.90;;;;;;4992247;28;20507;-68
2022/03/04 03:23:18;;;;;;;51.75;23.58;;;;;;;;;;4992103;28;20046;-68
2022/03/04 03:25:44;;;;;;;49.45;24.77;;;;;;;;;;4993471;28;20517;-68
2022/03/04 03:28:10;;;;;;;49.92;23.83;;;-1.30;99.90;;;;;;4992052;28;20405;-68
2022/03/04 03:30:36;;;;;;;49.13;24.38;;;;;;;;;;4992148;28;20054;-68
2022/03/04 03:33:02;;;;;;;49.83;24.23;;;-1.10;99.90;;;;;;4991923;28;20046;-68
2022/03/04 03:35:28;;;;;;;51.60;24.95;;;;;;;;;;4991919;28;20046;-68
2022/03/04 03:37:54;;;;;;;48.00;24.40;;;;;;;;;;4992836;28;20517;-68
2022/03/04 03:40:23;;;;;;;50.58;24.52;;;-0.60;99.90;;;;;;4991905;28;20042;-68
2022/03/04 03:42:49;;;;;;;56.40;25.85;;;;;;;;;;4992212;28;20438;-68
2022/03/04 03:45:15;;;;;;;54.72;25.60;;;;;;;;;;4992220;28;20042;-68
2022/03/04 03:47:42;;;;;;;48.25;24.58;;;;;;;;;;4975648;28;20576;-68
2022/03/04 03:50:10;;;;;;;56.33;25.50;;;-0.80;99.90;;;;;;4993056;28;20437;-68
2022/03/04 03:52:37;;;;;;;59.97;25.98;;;0.30;99.90;;;;;;4993089;28;20038;-68
2022/03/04 03:55:04;;;;;;;53.33;25.05;;;-0.60;99.90;;;;;;4992826;28;20045;-68
2022/03/04 03:57:30;;;;;;;55.72;26.40;;;;;;;;;;4992841;28;20042;-68
2022/03/04 03:59:56;;;;;;;52.80;25.08;;;;;;;;;;4992968;28;20123;-68
2022/03/04 04:02:22;;;;;;;47.88;23.40;;;;;;;;;;4991739;28;20038;-68
2022/03/04 04:04:48;;;;;;;53.13;24.70;;;;;;;;;;4993052;28;20048;-68
2022/03/04 04:07:14;;;;;;;53.63;25.67;;;;;;;;;;4991340;28;20049;-68
2022/03/04 04:09:40;;;;;;;58.70;26.33;;;;;;;;;;4992871;28;20110;-68
2022/03/04 04:12:07;;;;;;;56.97;25.63;;;-0.80;99.90;;;;;;4991247;28;20058;-68
2022/03/04 04:14:34;;;;;;;52.72;25.60;;;-0.70;99.90;;;;;;4992500;28;20042;-68
2022/03/04 04:17:00;;;;;;;59.22;25.58;;;;;;;;;;4991447;28;20042;-68
2022/03/04 04:19:26;;;;;;;53.28;25.40;;;-0.70;99.90;;;;;;4995267;28;20108;-69
2022/03/04 04:21:52;;;;;;;55.45;25.83;;;-0.50;99.90;;;;;;5032314;28;20049;-68
2022/03/04 04:24:19;;;;;;;55.88;26.42;;;;;;;;;;5014037;28;20123;-68
2022/03/04 04:26:45;;;;;;;55.42;25.42;;;;;;;;;;5013890;28;20080;-68
2022/03/04 04:29:14;;;;;;;57.55;27.52;;;;;;;;;;5031560;28;20099;-68
2022/03/04 04:31:41;;;;;;;60.75;26.63;;;-0.80;99.90;;;;;;5031583;28;20476;-68
2022/03/04 04:34:06;;;;;;;57.40;26.50;;;-0.60;99.90;;;;;;5031651;28;20125;-68
2022/03/04 04:36:33;;;;;;;59.75;26.40;;;0.50;99.90;;;;;;5013771;28;20128;-68
2022/03/04 04:38:59;;;;;;;59.45;27.58;;;;;;;;;;5013614;28;20076;-68
2022/03/04 04:41:25;;;;;;;57.58;26.13;;;;;;;;;;5013829;28;20497;-68
2022/03/04 04:43:51;;;;;;;62.30;26.45;;;-0.70;99.90;;;;;;5031668;28;20124;-68
2022/03/04 04:46:17;;;;;;;60.00;27.90;;;;;;;;;;5029860;28;20124;-68
2022/03/04 04:48:43;;;;;;;59.88;27.67;;;-0.60;99.90;;;;;;5033350;28;20049;-68
2022/03/04 04:51:09;;;;;;;61.33;26.58;;;-0.70;99.90;;;;;;5051128;28;20045;-68
2022/03/04 04:53:35;;;;;;;54.47;26.88;;;;;;;;;;5050611;28;20060;-68
2022/03/04 04:56:01;;;;;;;55.78;25.48;;;-0.80;99.90;;;;;;5033297;28;20087;-69
2022/03/04 04:58:27;;;;;;;55.70;26.02;;;;;;;;;;5033207;28;20500;-69
2022/03/04 05:00:53;;;;;;;56.78;26.88;;;-0.60;99.90;;;;;;5051207;28;20045;-69
2022/03/04 05:03:24;;;;;;;60.25;26.10;;;-0.60;99.90;;;;;;5051208;28;20369;-69
2022/03/04 05:05:51;;;;;;;56.38;25.77;;;-0.70;99.90;;;;;;5016773;28;20060;-69
2022/03/04 05:08:17;;;;;;;54.50;25.92;;;-0.40;99.90;;;;;;5033538;28;20071;-69
2022/03/04 05:10:44;;;;;;;55.35;26.70;;;;;;;;;;5051391;28;20452;-69
2022/03/04 05:13:11;;;;;;;56.78;27.23;;;;;;;;;;5051851;28;20045;-69
2022/03/04 05:15:37;;;;;;;55.53;25.60;;;;;;;;;;5016766;28;20041;-69
2022/03/04 05:18:03;;;;;;;62.28;26.83;;;;;;;;;;5033129;28;20116;-69
2022/03/04 05:20:29;;;;;;;54.97;25.90;;;-0.40;99.90;;;;;;5033087;28;20420;-69
2022/03/04 05:22:55;;;;;;;62.47;27.58;;;;;;;;;;5051705;28;20040;-69
2022/03/04 05:25:21;;;;;;;55.97;26.52;;;-0.60;99.90;;;;;;5055605;28;20048;-69
2022/03/04 05:27:47;;;;;;;60.58;28.05;;;;;;;;;;5054905;28;20041;-69
2022/03/04 05:30:14;;;;;;;59.65;27.23;;;-1.00;99.90;;;;;;5055045;28;20048;-69
2022/03/04 05:32:40;;;;;;;63.40;28.88;;;;;;;;;;5054989;28;20459;-69
2022/03/04 05:35:06;;;;;;;68.13;29.10;;;-1.40;99.90;;;;;;5037250;28;20080;-69
2022/03/04 05:37:33;;;;;;;66.63;29.17;;;-0.10;99.90;;;;;;5054681;28;20033;-69
2022/03/04 05:39:59;;;;;;;68.15;28.85;;;;;;;;;;5055292;28;20116;-69
2022/03/04 05:42:29;;;;;;;72.72;28.77;;;;;;;;;;5054952;28;20129;-69
2022/03/04 05:44:55;;;;;;;71.45;29.50;;;-0.70;99.90;;;;;;5055109;28;20037;-69
2022/03/04 05:47:20;;;;;;;71.82;29.25;;;-0.60;99.90;;;;;;5054569;28;20094;-69
2022/03/04 05:49:46;;;;;;;65.53;28.92;;;-1.30;99.90;;;;;;5054806;28;20033;-69
2022/03/04 05:52:12;;;;;;;62.95;28.33;;;;;;;;;;5036660;28;20055;-68
2022/03/04 05:54:38;;;;;;;63.80;28.08;;;;;;;;;;5054922;28;20044;-68
2022/03/04 05:57:05;;;;;;;67.63;29.38;;;;;;;;;;5054620;28;20045;-68
2022/03/04 05:59:31;;;;;;;66.50;30.20;;;;;;;;;;5036545;28;20508;-69
2022/03/04 06:01:57;;;;;;;68.70;29.08;;;;;;;;;;5054532;28;20041;-69
2022/03/04 06:04:23;;;;;;;64.30;28.83;;;;;;;;;;5037196;28;20089;-69
2022/03/04 06:06:49;;;;;;;67.78;28.60;;;;;;;;;;5054356;28;20048;-69
2022/03/04 06:09:15;;;;;;;66.40;28.75;;;;;;;;;;5036746;28;20450;-69
2022/03/04 06:11:41;;;;;;;65.40;28.70;;;-0.60;99.90;;;;;;5054201;28;20090;-68
2022/03/04 06:14:07;;;;;;;63.78;28.73;;;;;;;;;;5054298;28;20049;-68
2022/03/04 06:16:33;;;;;;;59.22;27.50;;;-0.20;99.90;;;;;;5054031;28;20052;-68
2022/03/04 06:18:59;;;;;;;58.20;28.42;;;;;;;;;;5036005;28;20041;-68
2022/03/04 06:21:25;;;;;;;57.67;27.88;;;;;;;;;;5035897;28;20408;-68
2022/03/04 06:23:52;;;;;;;60.83;28.63;;;;;;;;;;5053846;28;20041;-68
2022/03/04 06:26:20;;;;;;;61.47;27.75;;;-0.40;99.90;;;;;;5053740;28;20049;-68
2022/03/04 06:28:47;;;;;;;58.22;28.85;;;;;;;;;;5053755;28;20044;-68
2022/03/04 06:31:13;;;;;;;63.30;27.73;;;;;;;;;;5053678;28;20059;-68
2022/03/04 06:33:42;;;;;;;62.72;27.85;;;;;;;;;;5035710;28;20072;-69
2022/03/04 06:36:12;;;;;;;60.63;28.55;;;-0.50;99.90;;;;;;5036054;28;20111;-68
2022/03/04 06:38:41;;;;;;;62.45;27.05;;;-0.50;99.90;;;;;;5035614;28;20037;-69
2022/03/04 06:41:07;;;;;;;58.42;27.20;;;-0.50;99.90;;;;;;5053460;28;20041;-69
2022/03/04 06:43:34;;;;;;;74.22;36.85;;;;;;;;;;5035458;28;20341;-69
2022/03/04 06:46:02;;;;;;;64.15;29.08;;;-0.60;99.90;;;;;;5036064;28;20435;-69
2022/03/04 06:48:28;;;;;;;65.65;28.33;;;-0.60;99.90;;;;;;5053226;28;20507;-69
2022/03/04 06:50:53;;;;;;;65.15;28.90;;;-0.70;99.90;;;;;;5053505;28;20434;-69
2022/03/04 06:53:20;;;;;;;68.18;29.88;;;;;;;;;;5053230;28;20057;-68
2022/03/04 06:55:46;;;;;;;69.93;30.65;;;-0.40;99.90;;;;;;5053265;28;20045;-67
2022/03/04 06:58:13;;;;;;;61.83;28.67;;;-0.50;99.90;;;;;;5035053;28;20040;-67
2022/03/04 07:00:39;;;;;;;64.10;29.67;;;-1.10;99.90;;;;;;5035143;28;20041;-69
2022/03/04 07:03:05;;;;;;;63.47;28.70;;;;;;;;;;5035267;28;20480;-67
2022/03/04 07:05:32;;;;;;;65.28;28.80;;;;;;;;;;5053158;28;20060;-67
2022/03/04 07:07:58;;;;;;;61.97;28.77;;;;;;;;;;5035346;28;20065;-67
2022/03/04 07:10:24;;;;;;;67.18;29.55;;;;;;;;;;5035027;28;20488;-67
2022/03/04 07:12:50;;;;;;;61.72;28.60;;;-0.50;99.90;;;;;;5052731;28;20586;-67
2022/03/04 07:15:17;;;;;;;67.35;29.08;;;;;;;;;;5035003;28;20049;-67
2022/03/04 07:17:43;;;;;;;70.75;29.52;;;-0.30;99.90;;;;;;5035119;28;20045;-67
2022/03/04 07:20:09;;;;;;;58.53;28.77;;;-0.30;99.90;;;;;;5035066;28;20060;-67
2022/03/04 07:22:36;;;;;;;60.88;29.55;;;;;;;;;;5052851;28;20060;-69
2022/03/04 07:25:06;;;;;;;59.17;28.67;;;-0.40;99.90;;;;;;5052676;28;20119;-67
2022/03/04 07:27:36;;;;;;;64.72;30.23;;;-0.30;99.90;;;;;;5003793;28;20488;-67
2022/03/04 07:30:05;;;;;;;67.00;30.45;;;-0.60;99.90;;;;;;5026075;28;20091;-67
2022/03/04 07:32:32;;;;;;;68.88;30.67;;;;;;;;;;5031753;28;20424;-67
2022/03/04 07:34:58;;;;;;;64.75;29.88;;;;;;;;;;5031797;28;20419;-67
2022/03/04 07:37:24;;;;;;;61.75;28.63;;;-0.20;99.90;;;;;;5022106;28;20065;-67
2022/03/04 07:39:50;;;;;;;60.28;28.52;;;0.70;99.90;;;;;;5039283;28;20119;-67
2022/03/04 07:42:15;;;;;;;64.28;29.60;;;-0.80;99.90;;;;;;5026316;28;20084;-67
2022/03/04 07:44:41;;;;;;;65.45;29.48;;;-0.40;99.90;;;;;;5013824;28;20477;-67
2022/03/04 07:47:07;;;;;;;68.07;30.55;;;;;;;;;;5031099;28;20060;-67
2022/03/04 07:49:35;;;;;;;64.47;28.98;;;;;;;;;;5031856;28;20717;-67
2022/03/04 07:52:01;;;;;;;59.35;27.48;;;;;;;;;;5014248;28;20493;-67
2022/03/04 07:54:27;;;;;;;57.78;27.75;;;;;;;;;;5031898;28;20220;-67
2022/03/04 07:56:55;;;;;;;57.63;28.38;;;;;;;;;;5031570;28;20056;-67
2022/03/04 07:59:21;;;;;;;58.15;27.58;;;;;;;;;;4997959;28;20060;-67
2022/03/04 08:01:48;;;;;;;58.28;27.73;;;;;;;;;;5031785;28;20115;-67
2022/03/04 08:04:14;;;;;;;67.30;28.95;;;;;;;;;;4997389;28;20547;-67
2022/03/04 08:06:40;;;;;;;60.10;28.42;;;-0.20;99.90;;;;;;5013535;28;20088;-67
2022/03/04 08:09:08;;;;;;;58.70;26.38;;;0.00;99.90;;;;;;5031525;28;20042;-67
2022/03/04 08:11:34;;;;;;;53.50;25.70;;;-0.50;99.90;;;;;;5033145;28;20045;-67
2022/03/04 08:14:00;;;;;;;57.78;27.27;;;0.10;99.90;;;;;;5051392;28;20076;-67
2022/03/04 08:16:29;;;;;;;55.53;28.00;;;;;;;;;;5033049;28;20079;-67
2022/03/04 08:18:58;;;;;;;66.40;28.52;;;0.00;99.90;;;;;;5042704;28;20033;-67
2022/03/04 08:21:24;;;;;;;64.97;28.35;;;0.10;99.90;;;;;;5013110;28;20465;-67
2022/03/04 08:23:50;;;;;;;61.85;26.85;;;-0.20;99.90;;;;;;5031323;28;20132;-67
2022/03/04 08:26:16;;;;;;;63.38;28.75;;;;;;;;;;5031079;28;20533;-67
2022/03/04 08:28:43;;;;;;;61.65;26.30;;;;;;;;;;5013113;28;20073;-67
2022/03/04 08:31:12;;;;;;;58.72;26.95;;;;;;;;;;5030842;28;20038;-67
2022/03/04 08:33:43;;;;;;;60.38;28.30;;;-0.10;99.90;;;;;;5012639;28;20041;-68
2022/03/04 08:36:09;;;;;;;60.35;26.58;;;;;;;;;;5012983;28;20401;-67
2022/03/04 08:38:35;;;;;;;57.03;25.88;;;;;;;;;;5012412;28;20041;-67
2022/03/04 08:41:01;;;;;;;58.28;26.50;;;0.50;99.90;;;;;;5012941;28;20045;-67
2022/03/04 08:43:27;;;;;;;62.28;27.95;;;0.40;99.90;;;;;;5030326;28;20086;-67
2022/03/04 08:45:53;;;;;;;63.72;29.02;;;;;;;;;;5032940;28;20053;-67
2022/03/04 08:48:23;;;;;;;67.75;28.98;;;0.40;99.90;;;;;;5050601;28;20063;-67
2022/03/04 08:50:49;;;;;;;62.03;28.30;;;0.20;99.90;;;;;;5033268;28;20052;-67
2022/03/04 08:53:15;;;;;;;68.18;28.25;;;;;;;;;;5033187;28;20056;-67
2022/03/04 08:55:44;;;;;;;57.97;27.30;;;;;;;;;;5032363;28;20408;-67
2022/03/04 08:58:11;;;;;;;69.10;31.33;;;;;;;;;;5016859;28;20041;-67
2022/03/04 09:00:37;;;;;;;66.43;30.50;;;;;;;;;;5050417;28;20033;-67
2022/03/04 09:03:04;;;;;;;65.70;30.40;;;2.00;99.90;;;;;;5016429;28;20080;-67
2022/03/04 09:05:31;;;;;;;66.70;28.52;;;0.70;99.90;;;;;;5032602;28;20098;-67
2022/03/04 09:07:57;;;;;;;63.55;29.00;;;1.20;99.90;;;;;;5018654;28;20052;-67
2022/03/04 09:10:23;;;;;;;66.55;30.38;;;;;;;;;;5030622;28;20120;-67
2022/03/04 09:12:49;;;;;;;64.65;31.23;;;1.30;99.90;;;;;;5042828;28;20163;-67
2022/03/04 09:15:15;;;;;;;73.07;31.08;;;1.20;99.90;;;;;;5016160;28;20128;-67
2022/03/04 09:17:41;;;;;;;59.85;29.35;;;0.60;99.90;;;;;;5032352;28;20053;-67
2022/03/04 09:20:09;;;;;;;66.35;28.50;;;1.20;99.90;;;;;;5050112;28;20132;-68
2022/03/04 09:22:35;;;;;;;60.00;30.02;;;;;;;;;;5032707;28;20033;-68
2022/03/04 09:25:01;;;;;;;60.80;32.22;;;2.00;99.90;;;;;;5050123;28;20045;-68
2022/03/04 09:27:27;;;;;;;65.00;31.52;;;;;;;;;;5032526;28;20148;-68
2022/03/04 09:29:53;;;;;;;66.63;33.85;;;1.70;99.90;;;;;;5032288;28;20036;-67
2022/03/04 09:32:20;;;;;;;68.80;31.98;;;;;;;;;;5050179;28;20045;-68
2022/03/04 09:34:46;;;;;;;71.35;32.28;;;;;;;;;;5049927;28;20052;-68
2022/03/04 09:37:12;;;;;;;64.50;31.38;;;;;;;;;;5049853;28;20124;-68
2022/03/04 09:39:38;;;;;;;60.72;29.05;;;1.50;99.90;;;;;;5049877;28;20033;-68
2022/03/04 09:42:04;;;;;;;59.75;32.95;;;;;;;;;;4993418;28;20468;-68
2022/03/04 09:44:30;;;;;;;57.38;30.48;;;1.90;99.90;;;;;;5029976;28;20650;-68
2022/03/04 09:46:58;;;;;;;63.65;31.48;;;2.40;99.90;;;;;;5030127;28;20057;-68
2022/03/04 09:49:31;;;;;;;55.55;33.83;;;2.70;99.90;;;;;;5013162;28;20088;-68
2022/03/04 09:51:57;;;;;;;48.47;31.13;;;;;;;;;;4996982;28;20627;-68
2022/03/04 09:54:27;;;;;;;91.35;33.40;;;3.50;99.90;;;;;;5030468;28;20042;-69
2022/03/04 09:56:54;;;;;;;47.42;30.73;;;3.30;99.90;;;;;;5029873;28;20490;-69
2022/03/04 09:59:20;;;;;;;47.97;30.95;;;3.60;99.90;;;;;;5029588;28;20057;-69
2022/03/04 10:01:47;;;;;;;48.78;32.25;;;4.00;99.90;;;;;;5030074;28;20061;-69
2022/03/04 10:04:13;;;;;;;52.25;31.90;;;;;;;;;;5030485;28;20443;-69
2022/03/04 10:06:45;;;;;;;52.25;32.17;;;3.90;99.90;;;;;;5012538;28;20057;-69
2022/03/04 10:09:36;;;;;;;58.05;33.38;;;4.10;99.90;;;;;;5030699;28;20374;-69
2022/03/04 10:12:04;;;;;;;54.25;31.15;;;3.90;99.90;;;;;;5018715;28;20115;-70
2022/03/04 10:14:30;;;;;;;53.05;33.13;;;;;;;;;;5053162;28;20386;-70
2022/03/04 10:16:58;;;;;;;49.58;31.17;;;4.00;99.90;;;;;;5053380;28;20045;-70
2022/03/04 10:19:24;;;;;;;39.45;27.20;;;;;;;;;;5052980;28;20047;-70
2022/03/04 10:21:56;;;;;;;41.35;28.20;;;4.00;99.90;;;;;;5053559;28;20041;-70
2022/03/04 10:24:31;;;;;;;48.65;29.30;;;3.90;99.90;;;;;;5035303;28;20120;-70
2022/03/04 10:27:09;;;;;;;39.27;27.67;;;3.60;99.90;;;;;;5053731;28;20462;-70
2022/03/04 10:29:50;;;;;;;48.97;27.92;;;4.10;99.90;;;;;;5035141;28;20881;-70
2022/03/04 10:32:28;;;;;;;46.05;28.02;;;4.10;99.90;;;;;;5035433;28;20122;-70
2022/03/04 10:34:56;;;;;;;42.00;27.98;;;4.10;99.90;;;;;;5035461;28;20041;-70
2022/03/04 10:37:50;;;;;;;37.28;24.95;;;4.10;99.90;;;;;;5053218;28;20048;-70
2022/03/04 10:40:17;;;;;;;38.90;24.60;;;;;;;;;;5035245;28;20523;-70
2022/03/04 10:42:43;;;;;;;31.85;22.45;;;;;;;;;;5018576;28;20041;-67
2022/03/04 10:45:15;;;;;;;33.33;23.25;;;3.80;99.90;;;;;;5053249;28;20047;-67
2022/03/04 10:47:51;;;;;;;30.23;21.50;;;4.70;99.90;;;;;;5034861;28;20045;-67
2022/03/04 10:50:26;;;;;;;;;;;4.70;99.90;;;;;;5035862;28;20119;-67
2022/03/04 10:53:05;;;;;;;31.48;21.52;;;4.40;99.90;;;;;;5035528;28;20283;-67
2022/03/04 10:55:42;;;;;;;33.00;22.25;;;4.10;99.90;;;;;;5034995;28;20511;-67
2022/03/04 10:58:18;;;;;;;34.22;21.25;;;4.60;99.90;;;;;;5052742;28;20484;-67
2022/03/04 11:00:53;;;;;;;30.13;21.08;;;4.60;99.90;;;;;;5034898;28;20128;-67
2022/03/04 11:03:24;;;;;;;32.50;22.25;;;4.60;99.90;;;;;;5052734;28;20049;-67
2022/03/04 11:05:54;;;;;;;29.42;20.85;;;4.50;99.90;;;;;;5052566;28;20037;-67
2022/03/04 11:08:20;;;;;;;32.28;21.77;;;;;;;;;;5052598;28;20552;-67
2022/03/04 11:10:47;;;;;;;31.20;21.75;;;4.90;99.90;;;;;;5018294;28;20083;-67
2022/03/04 11:13:14;;;;;;;29.98;20.80;;;4.10;99.90;;;;;;5052100;28;20473;-67
2022/03/04 11:15:42;;;;;;;31.75;18.67;;;5.00;99.90;;;;;;5052084;28;20057;-67
2022/03/04 11:18:10;;;;;;;26.77;18.17;;;5.00;99.90;;;;;;5035063;28;20044;-67
2022/03/04 11:20:38;;;;;;;29.17;19.48;;;5.40;99.90;;;;;;5050821;28;20053;-67
2022/03/04 11:23:06;;;;;;;29.25;19.77;;;5.20;99.90;;;;;;5052684;28;20396;-67
2022/03/04 11:25:41;;;;;;;29.30;18.88;;;5.00;99.90;;;;;;5034043;28;20540;-67
2022/03/04 11:28:15;;;;;;;27.65;19.05;;;4.10;99.90;;;;;;5052842;28;20365;-69
2022/03/04 11:30:44;;;;;;;27.90;18.10;;;;;;;;;;5034284;28;20056;-67
2022/03/04 11:33:19;;;;;;;26.10;17.50;;;5.40;99.90;;;;;;5052393;28;20135;-68
2022/03/04 11:36:09;;;;;;;30.58;18.33;;;5.30;99.90;;;;;;5033972;28;20141;-67
2022/03/04 11:38:44;;;;;;;25.55;18.40;;;5.20;99.90;;;;;;5052035;28;20458;-67
2022/03/04 11:41:34;;;;;;;28.75;17.50;;;5.30;99.90;;;;;;5052415;28;20044;-68
2022/03/04 11:44:20;;;;;;;27.30;17.70;;;5.50;99.90;;;;;;5014791;28;20037;-68
2022/03/04 11:46:46;;;;;;;27.75;18.15;;;;;;;;;;5031981;28;20050;-67
2022/03/04 11:49:26;;;;;;;29.02;17.73;;;5.40;99.90;;;;;;5032509;28;20045;-67
2022/03/04 11:52:11;;;;;;;24.08;16.95;;;5.40;99.90;;;;;;5031700;28;20084;-67
2022/03/04 11:54:45;;;;;;;42.00;16.90;;;6.10;99.90;;;;;;5014070;28;20281;-67
2022/03/04 11:57:14;;;;;;;24.63;17.13;;;6.10;99.90;;;;;;5014040;28;20047;-67
2022/03/04 11:59:47;;;;;;;26.58;16.63;;;6.50;99.90;;;;;;5031831;28;20045;-67
2022/03/04 12:02:21;;;;;;;48.80;17.70;;;6.90;99.90;;;;;;5031545;28;20056;-67
2022/03/04 12:04:49;;;;;;;27.63;17.40;;;;;;;;;;5014054;28;20073;-69
2022/03/04 12:07:15;;;;;;;26.95;16.15;;;;;;;;;;5031584;28;20042;-67
2022/03/04 12:09:55;;;;;;;26.15;16.55;;;6.60;99.90;;;;;;5014182;28;20109;-67
2022/03/04 12:12:21;;;;;;;24.08;16.00;;;;;;;;;;5022056;28;20508;-67
2022/03/04 12:14:52;;;;;;;24.88;16.65;;;6.80;99.90;;;;;;5033541;28;20045;-67
2022/03/04 12:17:18;;;;;;;23.98;15.25;;;6.50;99.90;;;;;;5033391;28;20045;-67
2022/03/04 12:19:45;;;;;;;25.73;16.42;;;7.00;99.90;;;;;;5029853;28;20405;-67
2022/03/04 12:22:15;;;;;;;23.00;15.23;;;7.00;99.90;;;;;;5030473;28;20132;-69
2022/03/04 12:25:01;;;;;;;21.83;15.77;;;6.80;99.90;;;;;;5031020;28;20452;-69
2022/03/04 12:27:39;;;;;;;22.33;15.68;;;7.30;99.90;;;;;;5030209;28;20041;-69
2022/03/04 12:30:17;;;;;;;28.25;15.85;;;6.80;99.90;;;;;;5031662;28;20033;-69
2022/03/04 12:32:51;;;;;;;24.88;16.58;;;7.80;99.90;;;;;;5030772;28;20116;-69
2022/03/04 12:35:19;;;;;;;24.38;15.45;;;7.60;99.90;;;;;;5021931;28;20576;-67
2022/03/04 12:37:45;;;;;;;20.90;15.13;;;8.10;99.90;;;;;;5010416;28;20045;-67
2022/03/04 12:40:12;;;;;;;22.52;15.50;;;8.20;99.90;;;;;;5010311;28;20382;-68
2022/03/04 12:42:38;;;;;;;25.27;16.00;;;8.20;99.90;;;;;;5010695;28;20041;-68
2022/03/04 12:45:11;;;;;;;24.08;15.10;;;8.60;99.90;;;;;;5012083;28;20113;-68
2022/03/04 12:47:37;;;;;;;19.67;14.23;;;;;;;;;;5010729;28;20076;-68
2022/03/04 12:50:04;;;;;;;22.95;14.82;;;8.60;99.90;;;;;;5011670;28;20042;-68
2022/03/04 12:52:30;;;;;;;21.02;14.35;;;9.00;99.90;;;;;;5010718;28;20036;-68
2022/03/04 12:55:08;;;;;;;22.83;14.18;;;8.70;94.30;;;;;;5010298;28;20038;-69
2022/03/04 12:57:34;;;;;;;24.15;14.80;;;;;;;;;;5011746;28;20042;-68
2022/03/04 13:00:00;;;;;;;22.60;15.15;;;9.30;99.90;;;;;;5011743;28;20045;-68
2022/03/04 13:02:36;;;;;;;26.98;15.27;;;9.20;99.90;;;;;;5011465;28;20040;-68
2022/03/04 13:05:04;;;;;;;28.55;14.25;;;8.90;99.90;;;;;;5010245;28;20048;-68
2022/03/04 13:07:31;;;;;;;20.23;14.00;;;9.10;99.90;;;;;;4994344;28;20042;-68
2022/03/04 13:09:58;;;;;;;20.73;13.88;;;9.10;99.90;;;;;;5010249;28;20128;-68
2022/03/04 13:12:25;;;;;;;21.95;13.88;;;8.90;99.90;;;;;;5010340;28;20057;-68
2022/03/04 13:14:53;;;;;;;21.35;13.95;;;9.20;99.90;;;;;;5011469;28;20052;-68
2022/03/04 13:17:19;;;;;;;18.85;14.32;;;;;;;;;;5011351;28;20042;-68